Time;durP1;ratioP1;P1;durP2;ratioP2;P2;SDS_P1;SDS_P2;PMS_P1;PMS_P2;Temp;Humidity;BMP_temperature;BMP_pressure;BME280_temperature;BME280_humidity;BME280_pressure;Samples;Min_cycle;Max_cycle;Signal;HPM_P1;HPM_P2
2023/06/10 00:01:49;;;;;;;0.10;0.10;;;19.30;99.90;;;;;;5077969;28;20024;-81
2023/06/10 00:04:16;;;;;;;0.10;0.10;;;19.10;99.90;;;;;;5078592;28;20482;-75
2023/06/10 00:06:48;;;;;;;0.13;0.13;;;19.00;99.90;;;;;;5077953;28;20114;-78
2023/06/10 00:09:14;;;;;;;0.10;0.10;;;19.10;99.90;;;;;;5078101;28;20100;-74
2023/06/10 00:11:40;;;;;;;0.10;0.10;;;19.20;99.90;;;;;;5078119;28;20066;-73
2023/06/10 00:14:07;;;;;;;0.10;0.10;;;19.20;99.90;;;;;;5077877;28;20047;-74
2023/06/10 00:16:33;;;;;;;0.10;0.10;;;19.30;99.90;;;;;;5078133;28;20012;-74
2023/06/10 00:19:03;;;;;;;0.10;0.10;;;19.20;99.90;;;;;;5059667;28;20077;-74
2023/06/10 00:21:40;;;;;;;0.20;0.20;;;19.10;99.90;;;;;;5078153;28;20020;-74
2023/06/10 00:24:06;;;;;;;0.20;0.20;;;19.20;99.90;;;;;;5077974;28;20020;-74
2023/06/10 00:26:32;;;;;;;0.10;0.10;;;19.30;99.90;;;;;;5078311;28;20081;-76
2023/06/10 00:29:01;;;;;;;0.77;0.77;;;19.40;99.90;;;;;;5077842;28;20356;-75
2023/06/10 00:31:27;;;;;;;0.10;0.10;;;19.40;99.90;;;;;;5077766;28;20039;-74
2023/06/10 00:33:53;;;;;;;0.10;0.10;;;19.10;99.90;;;;;;5077669;28;20020;-74
2023/06/10 00:36:19;;;;;;;0.13;0.13;;;19.10;99.90;;;;;;5078050;28;20559;-73
2023/06/10 00:38:45;;;;;;;0.20;0.20;;;19.10;99.90;;;;;;5077657;28;20063;-75
2023/06/10 00:41:10;;;;;;;0.20;0.20;;;19.00;99.90;;;;;;5077693;28;20499;-74
2023/06/10 00:43:36;;;;;;;0.10;0.10;;;19.10;99.90;;;;;;5077460;28;20020;-76
2023/06/10 00:46:02;;;;;;;0.10;0.10;;;19.20;99.90;;;;;;5077788;28;20206;-74
2023/06/10 00:48:28;;;;;;;0.20;0.20;;;19.40;99.90;;;;;;5077605;28;20107;-83
2023/06/10 00:50:55;;;;;;;0.10;0.10;;;19.40;99.90;;;;;;5077587;28;20099;-76
2023/06/10 00:53:22;;;;;;;0.10;0.10;;;19.40;99.90;;;;;;5077340;28;20043;-78
2023/06/10 00:55:48;;;;;;;0.13;0.13;;;19.10;99.90;;;;;;5077344;28;20098;-75
2023/06/10 00:58:15;;;;;;;0.10;0.10;;;19.30;99.90;;;;;;5077229;28;20685;-76
2023/06/10 01:00:41;;;;;;;0.20;0.20;;;19.30;99.90;;;;;;5077341;28;20116;-76
2023/06/10 01:03:08;;;;;;;0.10;0.10;;;19.20;99.90;;;;;;5077317;28;20096;-76
2023/06/10 01:05:36;;;;;;;0.20;0.20;;;19.10;99.90;;;;;;5076538;28;20506;-76
2023/06/10 01:08:18;;;;;;;0.10;0.10;;;18.70;99.90;;;;;;5077503;28;20020;-77
2023/06/10 01:11:06;;;;;;;0.17;0.17;;;18.90;99.90;;;;;;5058932;28;20032;-76
2023/06/10 01:13:35;;;;;;;0.10;0.10;;;18.70;99.90;;;;;;5077058;28;20698;-75
2023/06/10 01:16:01;;;;;;;0.10;0.10;;;18.90;99.90;;;;;;5083684;28;20077;-78
2023/06/10 01:18:33;;;;;;;0.10;0.10;;;18.80;99.90;;;;;;5083750;28;20418;-76
2023/06/10 01:20:59;;;;;;;0.20;0.20;;;18.90;99.90;;;;;;5084026;28;20020;-76
2023/06/10 01:23:25;;;;;;;0.20;0.20;;;19.00;99.90;;;;;;5084193;28;20028;-75
2023/06/10 01:26:02;;;;;;;0.28;0.28;;;18.90;99.90;;;;;;5065570;28;20525;-80
2023/06/10 01:28:54;;;;;;;0.10;0.10;;;19.00;99.90;;;;;;5083684;28;20036;-74
2023/06/10 01:31:54;;;;;;;0.10;0.10;;;19.00;99.90;;;;;;5083915;28;20463;-75
2023/06/10 01:34:22;;;;;;;0.10;0.10;;;19.10;99.90;;;;;;5084033;28;20309;-74
2023/06/10 01:36:50;;;;;;;0.10;0.10;;;19.00;99.90;;;;;;5083740;28;20301;-78
2023/06/10 01:39:18;;;;;;;0.55;0.55;;;18.80;99.90;;;;;;5065398;28;20081;-76
2023/06/10 01:41:44;;;;;;;0.10;0.10;;;18.90;99.90;;;;;;5083856;28;20013;-73
2023/06/10 01:44:10;;;;;;;0.10;0.10;;;18.90;99.90;;;;;;5083342;28;20054;-79
2023/06/10 01:46:36;;;;;;;0.10;0.10;;;18.80;99.90;;;;;;5083770;28;20360;-73
2023/06/10 01:49:02;;;;;;;0.10;0.10;;;18.80;99.90;;;;;;5083597;28;20097;-73
2023/06/10 01:51:28;;;;;;;0.10;0.10;;;19.00;99.90;;;;;;5083449;28;20028;-73
2023/06/10 01:53:53;;;;;;;0.30;0.30;;;18.80;99.90;;;;;;5083821;28;20044;-73
2023/06/10 01:56:19;;;;;;;0.10;0.10;;;18.60;99.90;;;;;;5083427;28;20081;-76
2023/06/10 01:58:46;;;;;;;0.20;0.20;;;18.80;99.90;;;;;;5083352;28;20470;-73
2023/06/10 02:01:12;;;;;;;0.10;0.10;;;18.80;99.90;;;;;;5083814;28;20030;-75
2023/06/10 02:03:39;;;;;;;0.10;0.10;;;18.90;99.90;;;;;;5065033;28;20351;-73
2023/06/10 02:06:05;;;;;;;0.10;0.10;;;19.10;99.90;;;;;;5083784;28;20099;-77
2023/06/10 02:08:31;;;;;;;0.10;0.10;;;18.60;99.90;;;;;;5083459;28;20032;-73
2023/06/10 02:10:56;;;;;;;0.20;0.20;;;18.00;99.90;;;;;;5083393;28;20550;-73
2023/06/10 02:13:22;;;;;;;0.10;0.10;;;18.50;99.90;;;;;;5083692;28;20267;-75
2023/06/10 02:15:48;;;;;;;0.10;0.10;;;18.00;99.90;;;;;;5083527;28;20024;-75
2023/06/10 02:18:13;;;;;;;0.10;0.10;;;18.30;99.90;;;;;;5083392;28;20125;-77
2023/06/10 02:20:39;;;;;;;0.20;0.20;;;18.40;99.90;;;;;;5083532;28;20486;-75
2023/06/10 02:23:05;;;;;;;0.90;0.90;;;18.60;99.90;;;;;;5084104;28;20567;-75
2023/06/10 02:25:34;;;;;;;0.10;0.10;;;18.70;99.90;;;;;;5082780;28;20627;-76
2023/06/10 02:28:03;;;;;;;0.10;0.10;;;18.90;99.90;;;;;;5060896;28;20036;-79
2023/06/10 02:30:35;;;;;;;1.45;1.45;;;19.00;99.90;;;;;;5061231;28;20252;-74
2023/06/10 02:33:01;;;;;;;0.13;0.13;;;19.00;99.90;;;;;;5080325;28;20209;-83
2023/06/10 02:35:27;;;;;;;0.20;0.20;;;19.10;99.90;;;;;;5080774;28;20055;-74
2023/06/10 02:37:52;;;;;;;0.10;0.10;;;19.20;99.90;;;;;;5080080;28;20569;-74
2023/06/10 02:40:18;;;;;;;0.10;0.10;;;19.30;99.90;;;;;;5080226;28;20528;-75
2023/06/10 02:42:44;;;;;;;0.10;0.10;;;19.20;99.90;;;;;;5079842;28;20024;-75
2023/06/10 02:45:10;;;;;;;0.10;0.10;;;19.30;99.90;;;;;;5079996;28;20038;-76
2023/06/10 02:47:39;;;;;;;0.10;0.10;;;19.30;99.90;;;;;;5079568;28;20050;-76
2023/06/10 02:50:05;;;;;;;0.10;0.10;;;19.20;99.90;;;;;;5080123;28;20032;-76
2023/06/10 02:52:31;;;;;;;0.10;0.10;;;19.10;99.90;;;;;;5080024;28;20530;-74
2023/06/10 02:54:57;;;;;;;0.20;0.20;;;19.10;99.90;;;;;;5079668;28;20048;-74
2023/06/10 02:57:23;;;;;;;0.77;0.77;;;19.20;99.90;;;;;;5079851;28;20038;-75
2023/06/10 02:59:48;;;;;;;0.10;0.10;;;19.20;99.90;;;;;;5079386;28;20178;-75
2023/06/10 03:02:15;;;;;;;0.10;0.10;;;19.20;99.90;;;;;;5060862;28;20549;-75
2023/06/10 03:04:43;;;;;;;0.20;0.20;;;19.20;99.90;;;;;;5061393;28;20566;-75
2023/06/10 03:07:10;;;;;;;0.10;0.10;;;19.30;99.90;;;;;;5079679;28;20012;-75
2023/06/10 03:09:36;;;;;;;0.10;0.10;;;19.30;99.90;;;;;;5061080;28;20040;-74
2023/06/10 03:12:03;;;;;;;0.10;0.10;;;19.50;99.90;;;;;;5079487;28;20033;-81
2023/06/10 03:14:28;;;;;;;0.10;0.10;;;19.20;99.90;;;;;;5079292;28;20438;-75
2023/06/10 03:16:54;;;;;;;0.10;0.10;;;19.30;99.90;;;;;;5079213;28;20024;-79
2023/06/10 03:19:21;;;;;;;0.10;0.10;;;19.30;99.90;;;;;;5079345;28;20306;-74
2023/06/10 03:21:57;;;;;;;0.20;0.20;;;19.20;99.90;;;;;;5079427;28;20264;-75
2023/06/10 03:24:23;;;;;;;0.10;0.10;;;19.30;99.90;;;;;;5079455;28;20016;-75
2023/06/10 03:26:49;;;;;;;0.20;0.20;;;19.30;99.90;;;;;;5079070;28;20108;-75
2023/06/10 03:29:14;;;;;;;0.10;0.10;;;19.20;99.90;;;;;;5079188;28;20043;-76
2023/06/10 03:31:40;;;;;;;0.10;0.10;;;19.20;99.90;;;;;;5078857;28;20028;-75
2023/06/10 03:34:06;;;;;;;0.10;0.10;;;21.00;99.90;;;;;;5079099;28;20114;-75
2023/06/10 03:36:32;;;;;;;0.10;0.10;;;18.20;99.90;;;;;;5079156;28;20467;-73
2023/06/10 03:38:57;;;;;;;0.10;0.10;;;18.30;99.90;;;;;;5078720;28;20024;-73
2023/06/10 03:41:23;;;;;;;0.10;0.10;;;18.40;99.90;;;;;;5078844;28;20146;-73
2023/06/10 03:43:49;;;;;;;0.10;0.10;;;18.20;99.90;;;;;;5078801;28;20028;-73
2023/06/10 03:46:15;;;;;;;0.10;0.10;;;18.50;99.90;;;;;;5078759;28;20019;-74
2023/06/10 03:48:41;;;;;;;0.22;0.22;;;18.60;99.90;;;;;;5078495;28;20332;-74
2023/06/10 03:51:07;;;;;;;0.10;0.10;;;18.70;99.90;;;;;;5079687;28;20387;-73
2023/06/10 03:53:32;;;;;;;0.15;0.15;;;18.70;99.90;;;;;;5079197;28;20180;-73
2023/06/10 03:55:58;;;;;;;0.13;0.13;;;18.80;99.90;;;;;;5079389;28;20486;-73
2023/06/10 03:58:24;;;;;;;0.10;0.10;;;18.80;99.90;;;;;;5079013;28;20020;-79
2023/06/10 04:00:50;;;;;;;0.65;0.60;;;18.90;99.90;;;;;;5078533;28;20028;-73
2023/06/10 04:03:16;;;;;;;0.10;0.10;;;18.80;99.90;;;;;;5078274;28;20020;-74
2023/06/10 04:05:42;;;;;;;0.20;0.20;;;18.60;99.90;;;;;;5078743;28;20545;-73
2023/06/10 04:08:08;;;;;;;0.20;0.20;;;18.80;99.90;;;;;;5078453;28;20027;-75
2023/06/10 04:10:34;;;;;;;0.13;0.13;;;18.70;99.90;;;;;;5078383;28;20024;-74
2023/06/10 04:13:00;;;;;;;0.10;0.10;;;18.70;99.90;;;;;;5078324;28;20020;-77
2023/06/10 04:15:25;;;;;;;0.20;0.20;;;18.70;99.90;;;;;;5078119;28;20032;-74
2023/06/10 04:17:52;;;;;;;0.52;0.40;;;18.70;99.90;;;;;;5078015;28;20101;-74
2023/06/10 04:20:18;;;;;;;0.20;0.20;;;18.80;99.90;;;;;;5078034;28;20028;-74
2023/06/10 04:22:44;;;;;;;0.30;0.30;;;18.80;99.90;;;;;;5078390;28;20449;-74
2023/06/10 04:25:10;;;;;;;0.10;0.10;;;18.70;99.90;;;;;;5078170;28;20099;-73
2023/06/10 04:27:36;;;;;;;0.10;0.10;;;18.80;99.90;;;;;;5078048;28;20038;-73
2023/06/10 04:30:04;;;;;;;0.10;0.10;;;19.00;99.90;;;;;;5077903;28;20138;-82
2023/06/10 04:32:30;;;;;;;0.10;0.10;;;19.00;99.90;;;;;;5078011;28;20676;-74
2023/06/10 04:34:56;;;;;;;0.20;0.20;;;19.00;99.90;;;;;;5078075;28;20036;-73
2023/06/10 04:37:21;;;;;;;0.10;0.10;;;19.00;99.90;;;;;;5077926;28;20023;-74
2023/06/10 04:39:47;;;;;;;0.10;0.10;;;19.00;99.90;;;;;;5078150;28;20012;-73
2023/06/10 04:42:13;;;;;;;0.10;0.10;;;19.00;99.90;;;;;;5077686;28;20024;-73
2023/06/10 04:44:38;;;;;;;0.10;0.10;;;18.90;99.90;;;;;;5059324;28;20024;-74
2023/06/10 04:47:07;;;;;;;0.10;0.10;;;;;;;;;;5077740;28;20059;-73
2023/06/10 04:49:33;;;;;;;0.20;0.20;;;19.10;99.90;;;;;;5076780;28;20623;-81
2023/06/10 04:51:59;;;;;;;0.20;0.20;;;19.10;99.90;;;;;;5077864;28;20027;-74
2023/06/10 04:54:25;;;;;;;0.10;0.10;;;19.20;99.90;;;;;;5077675;28;20059;-73
2023/06/10 04:56:51;;;;;;;0.10;0.10;;;19.20;99.90;;;;;;5077383;28;20031;-75
2023/06/10 04:59:17;;;;;;;0.65;0.65;;;19.20;99.90;;;;;;5077437;28;20024;-73
2023/06/10 05:01:43;;;;;;;1.40;1.33;;;19.20;99.90;;;;;;5077336;28;20514;-73
2023/06/10 05:04:08;;;;;;;0.10;0.10;;;19.30;99.90;;;;;;5077145;28;20055;-73
2023/06/10 05:06:36;;;;;;;1.15;1.15;;;19.30;99.90;;;;;;5077119;28;20036;-74
2023/06/10 05:09:02;;;;;;;0.10;0.10;;;19.30;99.90;;;;;;5077309;28;20039;-73
2023/06/10 05:11:27;;;;;;;0.22;0.22;;;19.40;99.90;;;;;;5059327;28;20032;-73
2023/06/10 05:13:53;;;;;;;0.10;0.10;;;19.40;99.90;;;;;;5077928;28;20031;-79
2023/06/10 05:16:19;;;;;;;0.10;0.10;;;19.20;99.90;;;;;;5077346;28;20529;-73
2023/06/10 05:18:45;;;;;;;0.10;0.10;;;19.10;99.90;;;;;;5077664;28;20028;-75
2023/06/10 05:21:11;;;;;;;0.20;0.20;;;19.10;99.90;;;;;;5077253;28;20663;-81
2023/06/10 05:23:37;;;;;;;0.20;0.20;;;19.20;99.90;;;;;;5077158;28;20095;-78
2023/06/10 05:26:03;;;;;;;0.10;0.10;;;19.30;99.90;;;;;;5077017;28;20119;-73
2023/06/10 05:28:28;;;;;;;0.20;0.20;;;19.30;99.90;;;;;;5077021;28;20403;-76
2023/06/10 05:30:54;;;;;;;0.85;0.73;;;19.40;99.90;;;;;;5077122;28;20216;-75
2023/06/10 05:33:20;;;;;;;0.20;0.20;;;19.40;99.90;;;;;;5077307;28;20491;-73
2023/06/10 05:35:46;;;;;;;0.20;0.20;;;19.10;99.90;;;;;;5077020;28;20043;-75
2023/06/10 05:38:11;;;;;;;0.10;0.10;;;19.30;99.90;;;;;;5077005;28;20028;-76
2023/06/10 05:40:37;;;;;;;0.10;0.10;;;19.50;99.90;;;;;;5077034;28;20382;-77
2023/06/10 05:43:03;;;;;;;1.00;1.00;;;19.60;99.90;;;;;;5077556;28;20024;-73
2023/06/10 05:45:28;;;;;;;0.10;0.10;;;19.70;99.90;;;;;;5076768;28;20626;-74
2023/06/10 05:47:55;;;;;;;1.15;1.15;;;19.80;99.90;;;;;;5076951;28;20027;-75
2023/06/10 05:50:21;;;;;;;0.10;0.10;;;19.90;99.90;;;;;;5076581;28;20040;-77
2023/06/10 05:52:47;;;;;;;2.63;1.13;;;19.90;99.90;;;;;;5076818;28;20339;-77
2023/06/10 05:55:12;;;;;;;0.10;0.10;;;19.90;99.90;;;;;;5076734;28;20070;-75
2023/06/10 05:57:38;;;;;;;0.20;0.20;;;20.00;99.90;;;;;;5077578;28;20050;-75
2023/06/10 06:00:05;;;;;;;1.48;1.38;;;20.10;99.90;;;;;;5076752;28;20028;-76
2023/06/10 06:02:30;;;;;;;0.10;0.10;;;19.90;99.90;;;;;;5080639;28;20325;-75
2023/06/10 06:04:56;;;;;;;0.20;0.20;;;19.80;99.90;;;;;;5080959;28;20021;-74
2023/06/10 06:07:22;;;;;;;0.43;0.43;;;19.80;99.90;;;;;;5080357;28;20020;-74
2023/06/10 06:09:47;;;;;;;0.10;0.10;;;19.90;99.90;;;;;;5080562;28;20060;-73
2023/06/10 06:12:13;;;;;;;0.10;0.10;;;19.60;99.90;;;;;;5080606;28;20509;-73
2023/06/10 06:14:40;;;;;;;0.10;0.10;;;19.60;99.90;;;;;;5080396;28;20028;-73
2023/06/10 06:17:06;;;;;;;1.77;1.67;;;19.60;99.90;;;;;;5080663;28;20032;-73
2023/06/10 06:19:32;;;;;;;0.10;0.10;;;19.70;99.90;;;;;;5080356;28;20103;-73
2023/06/10 06:21:58;;;;;;;0.10;0.10;;;19.50;99.90;;;;;;5080322;28;20095;-74
2023/06/10 06:24:24;;;;;;;0.10;0.10;;;18.90;99.90;;;;;;5079989;28;20103;-73
2023/06/10 06:26:50;;;;;;;0.10;0.10;;;19.20;99.90;;;;;;5079610;28;20510;-73
2023/06/10 06:29:15;;;;;;;0.20;0.20;;;19.30;99.90;;;;;;5079644;28;20298;-73
2023/06/10 06:31:41;;;;;;;0.10;0.10;;;18.60;99.90;;;;;;5080054;28;20395;-78
2023/06/10 06:34:08;;;;;;;0.10;0.10;;;18.70;99.90;;;;;;5079777;28;20506;-75
2023/06/10 06:36:34;;;;;;;0.10;0.10;;;18.90;99.90;;;;;;5079570;28;20051;-73
2023/06/10 06:38:59;;;;;;;0.20;0.20;;;19.10;99.90;;;;;;5061091;28;20225;-76
2023/06/10 06:41:28;;;;;;;0.10;0.10;;;19.30;99.90;;;;;;5079842;28;20232;-80
2023/06/10 06:43:55;;;;;;;0.10;0.10;;;19.50;99.90;;;;;;5079797;28;20048;-77
2023/06/10 06:46:22;;;;;;;0.10;0.10;;;19.30;99.90;;;;;;5079585;28;20509;-75
2023/06/10 06:48:48;;;;;;;0.10;0.10;;;19.30;99.90;;;;;;5079257;28;20043;-75
2023/06/10 06:51:13;;;;;;;0.10;0.10;;;19.30;99.90;;;;;;5079684;28;20028;-85
2023/06/10 06:53:44;;;;;;;0.10;0.10;;;19.00;99.90;;;;;;5075727;28;20052;-81
2023/06/10 06:56:10;;;;;;;3.80;3.03;;;18.80;99.90;;;;;;5060095;28;20021;-83
2023/06/10 06:58:36;;;;;;;0.90;0.90;;;18.50;99.90;;;;;;5059432;28;20104;-75
2023/06/10 07:01:02;;;;;;;0.10;0.10;;;18.30;99.90;;;;;;5059473;28;20303;-75
2023/06/10 07:03:28;;;;;;;0.10;0.10;;;18.50;99.90;;;;;;5058923;28;20040;-75
2023/06/10 07:05:53;;;;;;;0.10;0.10;;;18.70;99.90;;;;;;5059242;28;20291;-75
2023/06/10 07:08:19;;;;;;;0.47;0.47;;;19.00;99.90;;;;;;5058987;28;20020;-75
2023/06/10 07:10:45;;;;;;;0.10;0.10;;;19.10;99.90;;;;;;5058944;28;20491;-75
2023/06/10 07:13:11;;;;;;;0.20;0.20;;;19.40;99.90;;;;;;5058118;28;20051;-75
2023/06/10 07:15:38;;;;;;;0.10;0.10;;;19.20;99.90;;;;;;5058249;28;20396;-75
2023/06/10 07:18:04;;;;;;;0.20;0.20;;;19.40;99.90;;;;;;5058808;28;20020;-75
2023/06/10 07:20:30;;;;;;;0.30;0.30;;;19.60;99.90;;;;;;5058546;28;20021;-74
2023/06/10 07:22:56;;;;;;;0.10;0.10;;;19.80;99.90;;;;;;5058951;28;20027;-81
2023/06/10 07:25:22;;;;;;;0.20;0.20;;;20.00;99.90;;;;;;5059240;28;20290;-75
2023/06/10 07:27:48;;;;;;;0.65;0.65;;;20.00;99.90;;;;;;5059334;28;20029;-75
2023/06/10 07:30:13;;;;;;;0.65;0.65;;;20.20;99.90;;;;;;5059792;28;20078;-75
2023/06/10 07:32:39;;;;;;;0.17;0.17;;;20.10;99.90;;;;;;5060208;28;20017;-78
2023/06/10 07:35:09;;;;;;;0.15;0.15;;;20.20;99.90;;;;;;5061495;28;20021;-74
2023/06/10 07:37:36;;;;;;;0.63;0.63;;;20.00;99.90;;;;;;5059432;28;20667;-84
2023/06/10 07:40:01;;;;;;;0.10;0.10;;;20.00;99.90;;;;;;5059065;28;20032;-74
2023/06/10 07:42:27;;;;;;;0.10;0.10;;;19.80;99.90;;;;;;5058667;28;20029;-75
2023/06/10 07:44:53;;;;;;;0.30;0.30;;;19.90;99.90;;;;;;5059289;28;20016;-81
2023/06/10 07:47:19;;;;;;;5.07;4.88;;;19.70;99.90;;;;;;5059044;28;20571;-74
2023/06/10 07:49:44;;;;;;;0.10;0.10;;;19.40;99.90;;;;;;5058722;28;20734;-73
2023/06/10 07:52:10;;;;;;;0.10;0.10;;;19.40;99.90;;;;;;5059415;28;20013;-74
2023/06/10 07:54:36;;;;;;;0.10;0.10;;;19.60;99.90;;;;;;5058920;28;20045;-74
2023/06/10 07:57:02;;;;;;;0.10;0.10;;;19.90;99.90;;;;;;5058639;28;20271;-76
2023/06/10 07:59:27;;;;;;;0.20;0.20;;;20.00;99.90;;;;;;5058861;28;20103;-77
2023/06/10 08:01:53;;;;;;;0.20;0.20;;;18.60;99.90;;;;;;5058754;28;20023;-77
2023/06/10 08:04:19;;;;;;;0.10;0.10;;;19.90;99.90;;;;;;5059752;28;20213;-74
2023/06/10 08:06:45;;;;;;;0.10;0.10;;;19.80;99.90;;;;;;5058554;28;20698;-73
2023/06/10 08:09:11;;;;;;;0.10;0.10;;;19.50;99.90;;;;;;5059497;28;20036;-75
2023/06/10 08:11:36;;;;;;;0.28;0.28;;;19.70;99.90;;;;;;5058400;28;20020;-75
2023/06/10 08:14:02;;;;;;;0.20;0.20;;;19.40;99.90;;;;;;5058255;28;20260;-74
2023/06/10 08:16:28;;;;;;;0.20;0.20;;;19.30;99.90;;;;;;5058294;28;20563;-74
2023/06/10 08:18:54;;;;;;;0.10;0.10;;;19.50;99.90;;;;;;5058789;28;20043;-75
2023/06/10 08:21:19;;;;;;;0.20;0.20;;;19.60;99.90;;;;;;5040875;28;20060;-74
2023/06/10 08:23:45;;;;;;;0.10;0.10;;;19.50;99.90;;;;;;5039992;28;20020;-81
2023/06/10 08:26:11;;;;;;;5.45;1.27;;;19.60;99.90;;;;;;5058769;28;20613;-74
2023/06/10 08:28:37;;;;;;;0.10;0.10;;;19.80;99.90;;;;;;5058630;28;20362;-78
2023/06/10 08:31:03;;;;;;;0.10;0.10;;;19.80;99.90;;;;;;5058940;28;20032;-73
2023/06/10 08:33:29;;;;;;;0.10;0.10;;;20.20;99.90;;;;;;5057962;28;20039;-73
2023/06/10 08:35:54;;;;;;;0.20;0.20;;;20.40;99.90;;;;;;5058363;28;20619;-84
2023/06/10 08:38:20;;;;;;;0.10;0.10;;;20.60;99.90;;;;;;5058789;28;20670;-74
2023/06/10 08:40:46;;;;;;;0.20;0.20;;;20.70;99.90;;;;;;5058355;28;20100;-75
2023/06/10 08:43:30;;;;;;;0.10;0.10;;;20.70;99.90;;;;;;5058305;28;20665;-74
2023/06/10 08:46:00;;;;;;;0.30;0.30;;;20.50;99.90;;;;;;5058046;28;20012;-81
2023/06/10 08:48:29;;;;;;;0.10;0.10;;;20.50;99.90;;;;;;5058521;28;20012;-75
2023/06/10 08:50:57;;;;;;;0.20;0.20;;;20.50;99.90;;;;;;5058066;28;20095;-74
2023/06/10 08:53:24;;;;;;;0.10;0.10;;;20.60;99.90;;;;;;5060239;28;20048;-77
2023/06/10 08:55:55;;;;;;;0.98;0.98;;;20.90;99.90;;;;;;5058815;28;20025;-83
2023/06/10 08:58:21;;;;;;;0.10;0.10;;;22.40;99.90;;;;;;5058934;28;20013;-74
2023/06/10 09:00:47;;;;;;;0.10;0.10;;;21.00;99.90;;;;;;5058946;28;20024;-80
2023/06/10 09:03:13;;;;;;;0.10;0.10;;;20.80;99.90;;;;;;5059829;28;20013;-76
2023/06/10 09:05:39;;;;;;;0.13;0.13;;;20.90;99.90;;;;;;5058254;28;20028;-73
2023/06/10 09:08:09;;;;;;;0.20;0.20;;;20.80;99.90;;;;;;5040453;28;20103;-80
2023/06/10 09:10:35;;;;;;;0.20;0.20;;;20.70;99.90;;;;;;5057694;28;20035;-73
2023/06/10 09:13:00;;;;;;;2.35;2.17;;;20.90;99.90;;;;;;5057242;28;20096;-75
2023/06/10 09:15:27;;;;;;;0.10;0.10;;;21.10;99.90;;;;;;5057815;28;20025;-75
2023/06/10 09:17:53;;;;;;;0.30;0.30;;;21.00;99.90;;;;;;5057307;28;20021;-75
2023/06/10 09:20:19;;;;;;;0.85;0.75;;;21.10;99.90;;;;;;5057692;28;20074;-75
2023/06/10 09:22:44;;;;;;;0.10;0.10;;;20.90;99.90;;;;;;5057519;28;20705;-76
2023/06/10 09:25:12;;;;;;;0.40;0.40;;;20.90;99.90;;;;;;5056800;28;20039;-77
2023/06/10 09:27:50;;;;;;;0.10;0.10;;;20.80;99.90;;;;;;5057909;28;20028;-75
2023/06/10 09:30:27;;;;;;;0.10;0.10;;;20.90;99.90;;;;;;5057222;28;20044;-74
2023/06/10 09:32:57;;;;;;;0.30;0.30;;;21.10;99.90;;;;;;5057313;28;20051;-79
2023/06/10 09:35:24;;;;;;;1.75;1.65;;;20.90;99.90;;;;;;5057702;28;20036;-75
2023/06/10 09:37:55;;;;;;;0.10;0.10;;;20.00;99.90;;;;;;5061397;28;20023;-74
2023/06/10 09:40:21;;;;;;;0.43;0.43;;;21.20;99.90;;;;;;5061553;28;20027;-75
2023/06/10 09:42:54;;;;;;;0.10;0.10;;;21.40;99.90;;;;;;5061216;28;20574;-75
2023/06/10 09:45:20;;;;;;;0.77;0.77;;;21.70;99.90;;;;;;5061318;28;20017;-74
2023/06/10 09:47:47;;;;;;;0.10;0.10;;;22.00;99.90;;;;;;5061361;28;20035;-75
2023/06/10 09:50:13;;;;;;;0.75;0.75;;;22.00;99.90;;;;;;5061028;28;20071;-75
2023/06/10 09:52:39;;;;;;;0.10;0.10;;;22.10;99.90;;;;;;5060990;28;20103;-75
2023/06/10 09:55:08;;;;;;;1.33;1.25;;;22.10;99.90;;;;;;5060924;28;20457;-74
2023/06/10 09:57:35;;;;;;;0.38;0.38;;;22.30;99.90;;;;;;5060840;28;20112;-73
2023/06/10 10:00:06;;;;;;;0.10;0.10;;;22.40;99.90;;;;;;5042197;28;20040;-74
2023/06/10 10:02:32;;;;;;;0.20;0.20;;;23.00;99.90;;;;;;5061014;28;20032;-74
2023/06/10 10:05:06;;;;;;;0.10;0.10;;;21.90;99.90;;;;;;5060637;28;20418;-73
2023/06/10 10:07:32;;;;;;;0.68;0.68;;;21.70;99.90;;;;;;5060671;28;20048;-74
2023/06/10 10:09:58;;;;;;;0.10;0.10;;;22.00;99.90;;;;;;5060432;28;20712;-73
2023/06/10 10:12:26;;;;;;;0.32;0.28;;;22.10;99.90;;;;;;5060592;28;20020;-75
2023/06/10 10:14:55;;;;;;;0.10;0.10;;;22.20;99.90;;;;;;5060800;28;20070;-75
2023/06/10 10:17:23;;;;;;;0.10;0.10;;;22.70;99.90;;;;;;5060236;28;20096;-74
2023/06/10 10:19:53;;;;;;;0.25;0.25;;;22.90;99.90;;;;;;5042817;28;20103;-73
2023/06/10 10:22:26;;;;;;;0.20;0.20;;;23.00;99.90;;;;;;5060675;28;20040;-74
2023/06/10 10:24:55;;;;;;;0.30;0.30;;;23.10;99.90;;;;;;5060704;28;20016;-74
2023/06/10 10:27:28;;;;;;;0.20;0.20;;;23.40;99.90;;;;;;5061011;28;20020;-73
2023/06/10 10:29:55;;;;;;;0.52;0.52;;;23.50;99.90;;;;;;5060655;28;20043;-78
2023/06/10 10:32:37;;;;;;;0.20;0.20;;;23.30;99.90;;;;;;5060390;28;20025;-74
2023/06/10 10:35:18;;;;;;;3.25;3.15;;;23.40;99.90;;;;;;5043126;28;20769;-76
2023/06/10 10:37:44;;;;;;;0.10;0.10;;;23.30;99.90;;;;;;5060766;28;20029;-79
2023/06/10 10:40:11;;;;;;;0.10;0.10;;;23.70;99.90;;;;;;5060883;28;20667;-75
2023/06/10 10:42:39;;;;;;;0.65;0.65;;;23.90;99.90;;;;;;5060192;28;20048;-74
2023/06/10 10:45:06;;;;;;;0.10;0.10;;;23.90;99.90;;;;;;5060536;28;20020;-74
2023/06/10 10:47:35;;;;;;;0.22;0.22;;;23.60;99.90;;;;;;5058968;28;20070;-74
2023/06/10 10:50:01;;;;;;;0.10;0.10;;;23.80;99.90;;;;;;5060811;28;20052;-76
2023/06/10 10:52:53;;;;;;;0.20;0.20;;;23.80;99.90;;;;;;5060746;28;20335;-76
2023/06/10 10:55:19;;;;;;;0.10;0.10;;;23.70;99.90;;;;;;5060400;28;20045;-74
2023/06/10 10:57:53;;;;;;;0.10;0.10;;;24.00;99.90;;;;;;5060495;28;20047;-74
2023/06/10 11:00:29;;;;;;;0.55;0.55;;;22.10;99.90;;;;;;5060487;28;20020;-75
2023/06/10 11:02:59;;;;;;;0.10;0.10;;;24.10;99.90;;;;;;5060672;28;20456;-80
2023/06/10 11:05:52;;;;;;;1.55;0.95;;;24.30;99.90;;;;;;5060313;28;20030;-77
2023/06/10 11:08:33;;;;;;;0.08;0.08;;;24.30;99.90;;;;;;5056383;28;20121;-73
2023/06/10 11:10:59;;;;;;;0.10;0.10;;;25.80;99.90;;;;;;5060605;28;20313;-73
2023/06/10 11:13:27;;;;;;;0.15;0.15;;;24.70;99.90;;;;;;5060628;28;20550;-74
2023/06/10 11:15:57;;;;;;;0.43;0.40;;;25.40;99.90;;;;;;5042573;28;20102;-77
2023/06/10 11:18:28;;;;;;;0.50;0.50;;;25.60;99.90;;;;;;5060736;28;20028;-73
2023/06/10 11:20:57;;;;;;;1.55;1.38;;;26.00;99.90;;;;;;5060396;28;20025;-75
2023/06/10 11:23:28;;;;;;;0.00;0.00;;;26.00;99.90;;;;;;5060022;28;20012;-75
2023/06/10 11:26:11;;;;;;;0.10;0.10;;;26.10;99.90;;;;;;5059946;28;20092;-75
2023/06/10 11:28:38;;;;;;;1.08;0.45;;;28.80;99.90;;;;;;5059854;28;20119;-75
2023/06/10 11:31:04;;;;;;;0.22;0.22;;;27.10;99.90;;;;;;5060106;28;20017;-73
2023/06/10 11:33:30;;;;;;;0.10;0.10;;;27.60;99.90;;;;;;5042311;28;20035;-74
2023/06/10 11:35:58;;;;;;;0.10;0.10;;;27.90;99.50;;;;;;5060946;28;20029;-75
2023/06/10 11:38:28;;;;;;;0.22;0.22;;;28.10;98.10;;;;;;5060326;28;20090;-74
2023/06/10 11:40:53;;;;;;;1.13;1.02;;;27.00;97.00;;;;;;5060349;28;20021;-80
2023/06/10 11:43:20;;;;;;;0.10;0.10;;;28.80;95.60;;;;;;5060015;28;20025;-75
2023/06/10 11:45:46;;;;;;;0.85;0.47;;;29.00;94.90;;;;;;5059826;28;20024;-74
2023/06/10 11:48:13;;;;;;;0.60;0.57;;;29.30;95.60;;;;;;5040619;28;20730;-78
2023/06/10 11:50:41;;;;;;;0.30;0.30;;;29.50;94.20;;;;;;5058293;28;20037;-82
2023/06/10 11:53:08;;;;;;;0.13;0.13;;;29.50;91.70;;;;;;5058915;28;20027;-74
2023/06/10 11:55:48;;;;;;;0.20;0.20;;;29.60;91.90;;;;;;5041547;28;20052;-74
2023/06/10 11:58:18;;;;;;;0.25;0.25;;;30.30;89.40;;;;;;5059108;28;20580;-75
2023/06/10 12:00:45;;;;;;;0.30;0.30;;;30.80;88.40;;;;;;5041425;28;20040;-73
2023/06/10 12:03:11;;;;;;;2.30;0.60;;;31.00;86.40;;;;;;5058900;28;20048;-74
2023/06/10 12:05:36;;;;;;;1.65;0.95;;;31.80;87.10;;;;;;5059462;28;20048;-74
2023/06/10 12:08:12;;;;;;;0.40;0.40;;;32.50;84.70;;;;;;5041348;28;20055;-73
2023/06/10 12:10:52;;;;;;;0.22;0.22;;;31.60;80.10;;;;;;5059246;28;20063;-76
2023/06/10 12:13:23;;;;;;;0.35;0.30;;;31.70;80.60;;;;;;5059162;28;20101;-74
2023/06/10 12:15:52;;;;;;;0.17;0.17;;;31.00;81.30;;;;;;5059239;28;20659;-76
2023/06/10 12:18:19;;;;;;;0.30;0.30;;;31.40;82.60;;;;;;5058827;28;20019;-73
2023/06/10 12:20:49;;;;;;;0.20;0.20;;;31.90;79.90;;;;;;5041077;28;20020;-74
2023/06/10 12:23:21;;;;;;;0.10;0.10;;;31.60;78.90;;;;;;5059631;28;20082;-73
2023/06/10 12:25:54;;;;;;;0.22;0.17;;;30.70;78.80;;;;;;5059970;28;20124;-74
2023/06/10 12:28:24;;;;;;;0.20;0.20;;;31.10;80.00;;;;;;5058900;28;20537;-75
2023/06/10 12:30:50;;;;;;;0.65;0.43;;;31.80;79.30;;;;;;5058859;28;20065;-74
2023/06/10 12:33:17;;;;;;;0.95;0.60;;;31.80;80.50;;;;;;5058872;28;20058;-75
2023/06/10 12:35:50;;;;;;;0.22;0.22;;;32.50;78.80;;;;;;5040973;28;20024;-74
2023/06/10 12:38:29;;;;;;;0.10;0.10;;;30.20;74.40;;;;;;5059284;28;20103;-75
2023/06/10 12:41:02;;;;;;;2.72;0.73;;;32.70;75.80;;;;;;5058823;28;20714;-76
2023/06/10 12:43:28;;;;;;;0.13;0.13;;;32.20;76.20;;;;;;5058153;28;20013;-74
2023/06/10 12:45:54;;;;;;;0.10;0.10;;;31.40;77.60;;;;;;5058082;28;20025;-74
2023/06/10 12:48:24;;;;;;;1.13;0.35;;;31.10;79.00;;;;;;5058084;28;20668;-73
2023/06/10 12:50:58;;;;;;;0.20;0.20;;;30.20;80.90;;;;;;5058934;28;20105;-74